Time;durP1;ratioP1;P1;durP2;ratioP2;P2;SDS_P1;SDS_P2;PMS_P1;PMS_P2;Temp;Humidity;BMP_temperature;BMP_pressure;BME280_temperature;BME280_humidity;BME280_pressure;Samples;Min_cycle;Max_cycle;Signal;HPM_P1;HPM_P2
2022/03/04 00:00:43;;;;;;;43.07;23.73;;;1.30;79.00;;;;;;5039989;28;20476;-46
2022/03/04 00:03:11;;;;;;;37.47;19.97;;;1.20;79.40;;;;;;5045878;28;20502;-45
2022/03/04 00:05:37;;;;;;;39.47;22.90;;;1.20;79.10;;;;;;5045712;28;20553;-45
2022/03/04 00:08:05;;;;;;;46.53;23.63;;;1.20;78.80;;;;;;5045261;28;20487;-46
2022/03/04 00:10:34;;;;;;;40.40;21.13;;;1.20;78.70;;;;;;5039439;28;20479;-46
2022/03/04 00:13:01;;;;;;;38.73;21.33;;;1.20;79.00;;;;;;5046098;28;21374;-45
2022/03/04 00:15:28;;;;;;;35.70;19.83;;;1.20;78.80;;;;;;5044904;28;20524;-46
2022/03/04 00:17:54;;;;;;;40.30;21.10;;;1.20;78.60;;;;;;5059748;28;20478;-48
2022/03/04 00:20:21;;;;;;;41.07;21.87;;;1.10;78.70;;;;;;5046844;28;20479;-45
2022/03/04 00:22:48;;;;;;;39.33;20.10;;;1.10;79.00;;;;;;5046265;28;20481;-45
2022/03/04 00:25:15;;;;;;;49.50;22.17;;;1.20;79.30;;;;;;5045024;28;20475;-46
2022/03/04 00:27:43;;;;;;;35.67;20.57;;;1.20;79.50;;;;;;5045293;28;20483;-45
2022/03/04 00:30:11;;;;;;;30.60;19.47;;;1.10;79.50;;;;;;5040457;28;20492;-46
2022/03/04 00:32:38;;;;;;;40.53;22.60;;;1.20;79.30;;;;;;5044831;28;21005;-45
2022/03/04 00:35:05;;;;;;;38.90;21.20;;;1.20;79.00;;;;;;5045355;28;20853;-46
2022/03/04 00:37:32;;;;;;;35.83;19.47;;;1.10;78.80;;;;;;5065917;28;20485;-45
2022/03/04 00:39:59;;;;;;;36.63;20.43;;;1.00;78.70;;;;;;5038540;28;20484;-45
2022/03/04 00:42:27;;;;;;;41.90;18.07;;;1.00;78.80;;;;;;5067607;28;20490;-46
2022/03/04 00:44:55;;;;;;;37.00;18.70;;;1.00;78.40;;;;;;5045121;28;20497;-45
2022/03/04 00:47:22;;;;;;;26.63;16.00;;;0.90;78.10;;;;;;5034374;28;20482;-45
2022/03/04 00:49:49;;;;;;;26.67;17.20;;;0.80;78.00;;;;;;5039950;28;20485;-45
2022/03/04 00:52:15;;;;;;;34.53;18.40;;;0.60;78.20;;;;;;5046477;28;20490;-45
2022/03/04 00:54:42;;;;;;;40.27;18.23;;;0.40;78.70;;;;;;5046147;28;20860;-45
2022/03/04 00:57:09;;;;;;;26.50;16.27;;;0.30;79.30;;;;;;5045217;28;20684;-45
2022/03/04 00:59:36;;;;;;;30.50;16.77;;;0.20;79.60;;;;;;5041248;28;20513;-45
2022/03/04 01:02:04;;;;;;;44.53;17.00;;;0.10;81.60;;;;;;5044693;28;20715;-46
2022/03/04 01:04:31;;;;;;;29.17;17.77;;;0.10;82.00;;;;;;5039349;28;20759;-46
2022/03/04 01:06:58;;;;;;;36.53;20.47;;;0.10;81.80;;;;;;5037630;28;20524;-46
2022/03/04 01:09:24;;;;;;;34.03;18.47;;;0.00;81.70;;;;;;5037428;28;20496;-45
2022/03/04 01:11:51;;;;;;;34.87;19.00;;;0.10;81.20;;;;;;5041763;28;20483;-46
2022/03/04 01:14:18;;;;;;;39.57;19.90;;;0.10;81.00;;;;;;5041091;28;20474;-45
2022/03/04 01:16:45;;;;;;;41.13;19.00;;;0.10;80.70;;;;;;5036784;28;20486;-45
2022/03/04 01:19:13;;;;;;;35.33;17.80;;;0.20;80.30;;;;;;5038190;28;20480;-45
2022/03/04 01:21:40;;;;;;;34.53;18.87;;;0.20;80.10;;;;;;5039063;28;21052;-45
2022/03/04 01:24:07;;;;;;;34.27;18.60;;;0.20;79.90;;;;;;5042306;28;20505;-45
2022/03/04 01:26:34;;;;;;;30.27;18.30;;;0.20;79.80;;;;;;5040231;28;20515;-45
2022/03/04 01:29:01;;;;;;;34.17;18.37;;;0.20;80.30;;;;;;5043175;28;21047;-45
2022/03/04 01:31:28;;;;;;;43.47;19.83;;;0.30;80.10;;;;;;5044557;28;21281;-45
2022/03/04 01:33:55;;;;;;;27.77;17.20;;;0.30;80.20;;;;;;5043995;28;20875;-45
2022/03/04 01:36:23;;;;;;;32.73;20.77;;;0.40;80.00;;;;;;5039193;28;20475;-45
2022/03/04 01:38:49;;;;;;;33.50;19.07;;;0.40;79.00;;;;;;5043915;28;20495;-45
2022/03/04 01:41:16;;;;;;;35.80;18.13;;;0.40;78.60;;;;;;5045510;28;20500;-45
2022/03/04 01:43:43;;;;;;;36.40;18.90;;;0.40;78.70;;;;;;5043933;28;20485;-45
2022/03/04 01:46:14;;;;;;;41.83;18.20;;;0.30;78.40;;;;;;5045346;28;20485;-45
2022/03/04 01:48:41;;;;;;;34.67;17.73;;;0.30;78.80;;;;;;5042994;28;20566;-45
2022/03/04 01:51:09;;;;;;;37.50;18.90;;;0.30;79.00;;;;;;5043128;28;20490;-45
2022/03/04 01:53:37;;;;;;;41.33;19.40;;;0.20;79.30;;;;;;5043385;28;20584;-45
2022/03/04 01:56:04;;;;;;;31.77;17.20;;;0.30;79.10;;;;;;5045342;28;20479;-45
2022/03/04 01:58:31;;;;;;;30.13;18.17;;;0.30;79.30;;;;;;5044654;28;20885;-45
2022/03/04 02:00:58;;;;;;;29.33;17.20;;;0.20;79.50;;;;;;5036746;28;20505;-47
2022/03/04 02:03:25;;;;;;;33.23;18.00;;;0.20;79.50;;;;;;5055168;28;20485;-44
2022/03/04 02:05:52;;;;;;;31.57;17.80;;;0.20;79.90;;;;;;5044444;28;20530;-44
2022/03/04 02:08:19;;;;;;;30.53;17.77;;;0.20;79.30;;;;;;5043928;28;20479;-45
2022/03/04 02:10:47;;;;;;;34.30;17.47;;;0.20;78.90;;;;;;5040379;28;20485;-45
2022/03/04 02:13:16;;;;;;;36.30;17.83;;;0.20;79.30;;;;;;5046320;28;20485;-45
2022/03/04 02:15:45;;;;;;;33.83;16.60;;;0.10;79.60;;;;;;5043682;28;20945;-45
2022/03/04 02:18:14;;;;;;;29.97;17.50;;;0.10;80.00;;;;;;5050304;28;20490;-45
2022/03/04 02:20:42;;;;;;;27.60;16.07;;;;;;;;;;5042052;28;20478;-45
2022/03/04 02:23:13;;;;;;;26.27;16.70;;;0.00;79.70;;;;;;5045618;28;20570;-45
2022/03/04 02:25:41;;;;;;;27.10;15.73;;;0.00;79.70;;;;;;5041185;28;20557;-45
2022/03/04 02:28:08;;;;;;;30.10;17.00;;;0.00;80.00;;;;;;5043338;28;20479;-45
2022/03/04 02:30:36;;;;;;;29.83;16.60;;;0.00;80.00;;;;;;5039915;28;20469;-46
2022/03/04 02:33:04;;;;;;;28.90;17.17;;;0.00;80.10;;;;;;5046529;28;20494;-45
2022/03/04 02:35:31;;;;;;;33.57;16.40;;;0.00;80.10;;;;;;5043755;28;20849;-45
2022/03/04 02:37:58;;;;;;;28.40;16.20;;;0.00;79.80;;;;;;5043857;28;21253;-45
2022/03/04 02:40:26;;;;;;;24.37;14.63;;;-0.10;79.80;;;;;;5042408;28;20479;-44
2022/03/04 02:42:53;;;;;;;26.60;15.80;;;-0.10;79.80;;;;;;5043912;28;20582;-45
2022/03/04 02:45:19;;;;;;;28.63;15.63;;;-0.20;79.80;;;;;;5041232;28;20498;-45
2022/03/04 02:47:46;;;;;;;30.87;17.07;;;-0.10;80.00;;;;;;5043236;28;20493;-45
2022/03/04 02:50:13;;;;;;;23.90;15.30;;;-0.20;79.80;;;;;;5042380;28;20479;-45
2022/03/04 02:52:40;;;;;;;29.80;16.63;;;-0.20;80.40;;;;;;5044200;28;20491;-45
2022/03/04 02:55:11;;;;;;;31.53;17.17;;;-0.20;81.20;;;;;;5041584;28;20490;-44
2022/03/04 02:57:40;;;;;;;37.70;20.03;;;-0.10;81.50;;;;;;5043110;28;20847;-45
2022/03/04 03:00:07;;;;;;;30.10;17.17;;;-0.10;81.10;;;;;;5040498;28;20491;-45
2022/03/04 03:02:34;;;;;;;36.77;18.43;;;-0.10;80.70;;;;;;5036930;28;20494;-45
2022/03/04 03:05:01;;;;;;;34.80;17.53;;;-0.10;79.80;;;;;;5053365;28;20479;-45
2022/03/04 03:07:28;;;;;;;27.10;15.70;;;-0.10;79.50;;;;;;5031991;28;20479;-45
2022/03/04 03:09:54;;;;;;;27.93;16.20;;;-0.10;79.20;;;;;;5040141;28;20589;-49
2022/03/04 03:12:21;;;;;;;32.00;15.93;;;-0.10;80.00;;;;;;5043659;28;20488;-45
2022/03/04 03:14:49;;;;;;;31.20;17.07;;;-0.10;80.30;;;;;;5042535;28;20494;-45
2022/03/04 03:17:16;;;;;;;30.77;16.10;;;-0.20;80.30;;;;;;5043414;28;20493;-45
2022/03/04 03:19:43;;;;;;;42.33;17.27;;;-0.20;80.40;;;;;;5039103;28;20498;-45
2022/03/04 03:22:10;;;;;;;39.10;16.60;;;-0.20;79.80;;;;;;5042070;28;21100;-45
2022/03/04 03:24:36;;;;;;;36.30;16.17;;;-0.20;79.50;;;;;;5038575;28;20476;-45
2022/03/04 03:27:03;;;;;;;28.70;16.10;;;-0.20;79.70;;;;;;5041728;28;20773;-46
2022/03/04 03:29:30;;;;;;;40.53;16.03;;;-0.30;80.00;;;;;;5040668;28;20991;-45
2022/03/04 03:31:58;;;;;;;27.03;15.57;;;-0.40;80.40;;;;;;5042441;28;20479;-46
2022/03/04 03:34:25;;;;;;;34.73;18.17;;;-0.40;81.60;;;;;;5042208;28;20480;-46
2022/03/04 03:36:52;;;;;;;37.67;19.77;;;-0.40;82.10;;;;;;5041641;28;20474;-46
2022/03/04 03:39:18;;;;;;;36.93;18.97;;;-0.30;82.00;;;;;;5040737;28;20523;-45
2022/03/04 03:41:45;;;;;;;31.80;17.50;;;-0.30;80.80;;;;;;5041398;28;21129;-46
2022/03/04 03:44:12;;;;;;;35.60;18.00;;;-0.30;80.60;;;;;;5038024;28;20522;-46
2022/03/04 03:46:38;;;;;;;32.90;15.30;;;-0.30;80.90;;;;;;5042199;28;20485;-46
2022/03/04 03:49:07;;;;;;;34.63;16.77;;;-0.30;81.30;;;;;;5041191;28;20493;-46
2022/03/04 03:51:34;;;;;;;40.33;18.97;;;-0.40;81.50;;;;;;5043283;28;20483;-45
2022/03/04 03:54:01;;;;;;;24.90;14.23;;;-0.30;81.60;;;;;;5030967;28;20483;-46
2022/03/04 03:56:27;;;;;;;37.87;18.37;;;-0.30;80.80;;;;;;5041421;28;20480;-45
2022/03/04 03:58:54;;;;;;;30.97;16.77;;;-0.30;79.80;;;;;;5038155;28;20494;-46
2022/03/04 04:01:21;;;;;;;27.53;17.07;;;-0.40;79.40;;;;;;5039649;28;20487;-45
2022/03/04 04:03:48;;;;;;;31.40;17.57;;;-0.40;79.30;;;;;;5042272;28;20489;-46
2022/03/04 04:06:16;;;;;;;31.23;17.60;;;-0.40;79.70;;;;;;5036515;28;20501;-46
2022/03/04 04:08:43;;;;;;;32.73;16.17;;;-0.40;80.80;;;;;;5043846;28;20497;-46
2022/03/04 04:11:10;;;;;;;27.93;14.10;;;-0.40;81.50;;;;;;5044061;28;20489;-46
2022/03/04 04:13:37;;;;;;;29.40;16.63;;;-0.40;81.50;;;;;;5043162;28;20493;-46
2022/03/04 04:16:04;;;;;;;28.53;14.33;;;-0.40;81.60;;;;;;5041404;28;20766;-46
2022/03/04 04:18:31;;;;;;;33.97;14.00;;;-0.50;81.60;;;;;;5041109;28;20876;-46
2022/03/04 04:20:58;;;;;;;23.67;13.30;;;-0.50;81.60;;;;;;5040364;28;20471;-46
2022/03/04 04:23:26;;;;;;;25.83;14.80;;;-0.50;81.80;;;;;;5040746;28;20481;-45
2022/03/04 04:25:52;;;;;;;26.37;13.40;;;-0.60;82.20;;;;;;5042098;28;20483;-45
2022/03/04 04:28:21;;;;;;;33.80;17.20;;;-0.60;82.60;;;;;;5042019;28;20476;-45
2022/03/04 04:30:48;;;;;;;24.23;13.97;;;-0.60;82.50;;;;;;5039615;28;20577;-45
2022/03/04 04:33:15;;;;;;;35.47;14.30;;;-0.60;82.80;;;;;;5038050;28;20486;-45
2022/03/04 04:35:42;;;;;;;29.67;14.97;;;-0.70;82.60;;;;;;5042019;28;20476;-45
2022/03/04 04:38:09;;;;;;;25.63;13.87;;;-0.70;82.50;;;;;;5041472;28;20485;-46
2022/03/04 04:40:37;;;;;;;26.63;13.53;;;-0.70;82.80;;;;;;5039627;28;20487;-45
2022/03/04 04:43:04;;;;;;;21.83;11.50;;;-0.70;82.80;;;;;;5038367;28;20486;-45
2022/03/04 04:45:31;;;;;;;32.10;14.97;;;-0.70;82.80;;;;;;5040848;28;20493;-45
2022/03/04 04:47:57;;;;;;;26.23;13.43;;;-0.70;82.90;;;;;;5044049;28;20477;-45
2022/03/04 04:50:24;;;;;;;24.93;14.07;;;-0.60;83.00;;;;;;5042176;28;20996;-44
2022/03/04 04:52:51;;;;;;;31.70;17.07;;;-0.60;83.00;;;;;;5041693;28;20495;-46
2022/03/04 04:55:18;;;;;;;40.97;17.57;;;-0.50;82.80;;;;;;5041285;28;20483;-45
2022/03/04 04:57:46;;;;;;;27.07;15.80;;;-0.50;82.70;;;;;;5041816;28;20884;-46
2022/03/04 05:00:14;;;;;;;28.03;15.57;;;-0.40;82.50;;;;;;5038499;28;20497;-44
2022/03/04 05:02:40;;;;;;;40.50;19.63;;;-0.70;81.70;;;;;;5034637;28;20472;-45
2022/03/04 05:05:08;;;;;;;28.20;17.00;;;-0.90;82.10;;;;;;5043421;28;21349;-45
2022/03/04 05:07:35;;;;;;;21.20;14.20;;;-1.00;82.90;;;;;;5033086;28;21047;-45
2022/03/04 05:10:01;;;;;;;35.20;16.10;;;-1.00;83.30;;;;;;5038492;28;20953;-45
2022/03/04 05:12:29;;;;;;;27.50;15.90;;;-0.90;83.80;;;;;;5040954;28;20482;-45
2022/03/04 05:14:57;;;;;;;27.10;15.47;;;-0.90;83.70;;;;;;5040844;28;21330;-45
2022/03/04 05:17:24;;;;;;;31.33;16.40;;;-0.80;84.20;;;;;;5041152;28;20490;-45
2022/03/04 05:19:51;;;;;;;36.40;17.93;;;-0.60;84.30;;;;;;5038844;28;21025;-45
2022/03/04 05:22:18;;;;;;;32.30;16.53;;;-0.60;83.70;;;;;;5045046;28;20481;-46
2022/03/04 05:24:45;;;;;;;33.90;17.00;;;-0.50;83.50;;;;;;5037365;28;20486;-45
2022/03/04 05:27:11;;;;;;;30.00;14.10;;;-0.40;83.40;;;;;;5041574;28;20590;-45
2022/03/04 05:29:38;;;;;;;33.30;17.07;;;-0.30;83.30;;;;;;5039170;28;20489;-45
2022/03/04 05:32:07;;;;;;;37.27;16.37;;;-0.20;82.70;;;;;;5040434;28;20520;-45
2022/03/04 05:34:34;;;;;;;29.63;16.17;;;-0.20;81.70;;;;;;5040674;28;20490;-45
2022/03/04 05:37:01;;;;;;;28.10;16.03;;;-0.10;81.60;;;;;;5040640;28;20483;-45
2022/03/04 05:39:28;;;;;;;31.07;15.77;;;-0.10;81.80;;;;;;5034089;28;20537;-45
2022/03/04 05:41:55;;;;;;;32.17;16.73;;;-0.10;82.20;;;;;;5038648;28;20483;-46
2022/03/04 05:44:21;;;;;;;36.57;16.97;;;-0.20;82.40;;;;;;5040898;28;20499;-46
2022/03/04 05:46:48;;;;;;;31.57;14.97;;;-0.10;82.70;;;;;;5038813;28;20493;-46
2022/03/04 05:49:17;;;;;;;28.93;16.73;;;-0.10;82.40;;;;;;5038426;28;20676;-45
2022/03/04 05:51:43;;;;;;;37.37;18.00;;;-0.10;82.50;;;;;;5031098;28;20558;-46
2022/03/04 05:54:10;;;;;;;27.20;15.70;;;-0.10;82.50;;;;;;5053588;28;20481;-45
2022/03/04 05:56:37;;;;;;;27.80;14.13;;;-0.10;82.50;;;;;;5029365;28;20496;-45
2022/03/04 05:59:04;;;;;;;32.93;17.33;;;0.00;82.40;;;;;;5037831;28;20483;-45
2022/03/04 06:01:30;;;;;;;29.13;16.00;;;0.00;82.20;;;;;;5040623;28;20498;-45
2022/03/04 06:03:58;;;;;;;35.00;16.97;;;0.00;81.90;;;;;;5038472;28;21040;-46
2022/03/04 06:06:26;;;;;;;31.60;17.00;;;0.10;81.90;;;;;;5039428;28;20492;-45
2022/03/04 06:08:53;;;;;;;28.20;15.10;;;0.00;80.20;;;;;;5037599;28;20483;-45
2022/03/04 06:11:20;;;;;;;19.83;13.73;;;0.00;80.10;;;;;;5040923;28;20486;-46
2022/03/04 06:13:47;;;;;;;28.67;17.30;;;;;;;;;;5042494;28;20476;-45
2022/03/04 06:16:14;;;;;;;26.00;14.80;;;-0.30;79.20;;;;;;5044253;28;20498;-45
2022/03/04 06:18:41;;;;;;;28.37;14.27;;;-0.40;79.60;;;;;;5043844;28;20486;-45
2022/03/04 06:21:07;;;;;;;31.17;17.10;;;-0.40;79.70;;;;;;5044090;28;20485;-45
2022/03/04 06:23:35;;;;;;;29.60;16.80;;;-0.50;80.00;;;;;;5043967;28;20553;-45
2022/03/04 06:26:02;;;;;;;27.50;15.50;;;-0.50;80.00;;;;;;5044096;28;20502;-45
2022/03/04 06:28:29;;;;;;;37.43;16.93;;;;;;;;;;5048524;28;20482;-45
2022/03/04 06:30:56;;;;;;;28.97;15.23;;;-0.50;80.30;;;;;;5040988;28;20483;-46
2022/03/04 06:33:32;;;;;;;29.50;14.80;;;-0.50;80.70;;;;;;5043692;28;20491;-45
2022/03/04 06:36:05;;;;;;;31.97;15.97;;;-0.40;80.40;;;;;;5043524;28;20491;-46
2022/03/04 06:38:32;;;;;;;25.40;16.30;;;-0.40;80.10;;;;;;5044154;28;21019;-45
2022/03/04 06:41:01;;;;;;;28.10;14.90;;;-0.40;79.70;;;;;;5039957;28;20956;-45
2022/03/04 06:43:28;;;;;;;32.83;16.83;;;-0.40;79.70;;;;;;5044155;28;20486;-45
2022/03/04 06:45:55;;;;;;;37.23;17.47;;;-0.50;79.40;;;;;;5044148;28;20506;-45
2022/03/04 06:48:23;;;;;;;25.50;16.53;;;-0.50;79.90;;;;;;5044365;28;20608;-45
2022/03/04 06:50:50;;;;;;;30.07;15.37;;;-0.60;79.80;;;;;;5042044;28;20487;-45
2022/03/04 06:53:17;;;;;;;30.97;16.17;;;-0.50;80.20;;;;;;5044318;28;20480;-46
2022/03/04 06:55:45;;;;;;;29.80;15.63;;;-0.50;80.60;;;;;;5043695;28;20482;-55
2022/03/04 06:58:13;;;;;;;36.53;17.57;;;-0.40;81.40;;;;;;5044540;28;20506;-45
2022/03/04 07:00:41;;;;;;;32.77;16.77;;;-0.30;81.90;;;;;;5040777;28;20472;-45
2022/03/04 07:03:08;;;;;;;37.20;20.00;;;;;;;;;;5043702;28;21202;-50
2022/03/04 07:05:35;;;;;;;50.20;26.33;;;-0.20;82.50;;;;;;5043689;28;20499;-46
2022/03/04 07:08:02;;;;;;;56.73;27.20;;;0.00;82.40;;;;;;5046860;28;20491;-46
2022/03/04 07:10:29;;;;;;;41.83;24.20;;;;;;;;;;5040861;28;20492;-45
2022/03/04 07:12:56;;;;;;;41.37;22.53;;;0.60;83.30;;;;;;5042822;28;21437;-46
2022/03/04 07:15:24;;;;;;;52.23;25.20;;;1.50;85.60;;;;;;5042696;28;20491;-45
2022/03/04 07:17:51;;;;;;;48.70;24.63;;;3.30;84.50;;;;;;5044046;28;20490;-46
2022/03/04 07:20:18;;;;;;;39.97;22.40;;;4.60;81.90;;;;;;5029734;28;21001;-46
2022/03/04 07:22:44;;;;;;;34.43;20.10;;;5.80;78.30;;;;;;5056979;28;20480;-46
2022/03/04 07:25:13;;;;;;;32.27;19.33;;;7.50;75.00;;;;;;5031976;28;20487;-46
2022/03/04 07:27:40;;;;;;;35.80;19.70;;;8.60;72.50;;;;;;5041405;28;20479;-47
2022/03/04 07:30:10;;;;;;;31.60;19.67;;;9.50;70.60;;;;;;5040493;28;20830;-46
2022/03/04 07:32:39;;;;;;;33.37;21.20;;;10.70;67.50;;;;;;5043108;28;20534;-47
2022/03/04 07:35:08;;;;;;;33.20;20.10;;;11.40;65.40;;;;;;5042463;28;20835;-46
2022/03/04 07:37:35;;;;;;;31.63;20.17;;;12.10;64.60;;;;;;5042435;28;20509;-46
2022/03/04 07:40:02;;;;;;;32.60;22.00;;;13.00;62.60;;;;;;5038386;28;20568;-46
2022/03/04 07:42:29;;;;;;;28.63;21.17;;;13.00;63.20;;;;;;5041936;28;20506;-46
2022/03/04 07:44:56;;;;;;;31.53;21.20;;;13.60;61.90;;;;;;5044539;28;20487;-47
2022/03/04 07:47:23;;;;;;;33.17;22.30;;;14.60;59.40;;;;;;5041925;28;20498;-47
2022/03/04 07:49:51;;;;;;;31.73;20.70;;;14.80;59.20;;;;;;5040848;28;20479;-46
2022/03/04 07:52:18;;;;;;;33.00;21.07;;;15.00;59.20;;;;;;5041733;28;20491;-47
2022/03/04 07:54:45;;;;;;;41.50;23.20;;;15.90;58.80;;;;;;5043377;28;20486;-46
2022/03/04 07:57:12;;;;;;;34.00;22.33;;;15.90;59.20;;;;;;5037979;28;20485;-46
2022/03/04 07:59:38;;;;;;;35.43;22.67;;;16.60;57.10;;;;;;5039203;28;20480;-46
2022/03/04 08:02:06;;;;;;;32.43;22.40;;;17.10;57.50;;;;;;5043381;28;20490;-46
2022/03/04 08:04:32;;;;;;;35.57;23.10;;;17.20;56.90;;;;;;5044634;28;20489;-46
2022/03/04 08:07:01;;;;;;;36.33;24.33;;;17.50;56.70;;;;;;5037740;28;20486;-46
2022/03/04 08:09:27;;;;;;;35.93;23.17;;;17.60;57.70;;;;;;5039651;28;20489;-46
2022/03/04 08:11:54;;;;;;;38.93;22.70;;;17.90;56.30;;;;;;5041567;28;20474;-46
2022/03/04 08:14:21;;;;;;;44.50;25.23;;;17.90;56.20;;;;;;5042462;28;20494;-47
2022/03/04 08:16:48;;;;;;;34.17;22.73;;;17.90;55.50;;;;;;5040494;28;20471;-47
2022/03/04 08:19:14;;;;;;;31.30;23.63;;;17.90;55.90;;;;;;5038898;28;20478;-46
2022/03/04 08:21:43;;;;;;;32.70;23.10;;;17.70;55.60;;;;;;5029737;28;20481;-46
2022/03/04 08:24:11;;;;;;;34.07;24.13;;;17.50;55.50;;;;;;5030317;28;20956;-46
2022/03/04 08:26:38;;;;;;;38.03;24.20;;;17.40;55.60;;;;;;5038601;28;20475;-46
2022/03/04 08:29:05;;;;;;;41.83;21.73;;;17.10;55.40;;;;;;5041110;28;20612;-46
2022/03/04 08:31:32;;;;;;;31.03;21.70;;;16.90;54.20;;;;;;5040716;28;20527;-46
2022/03/04 08:33:59;;;;;;;32.63;22.47;;;;;;;;;;5043602;28;20486;-46
2022/03/04 08:36:26;;;;;;;28.53;19.50;;;15.90;54.20;;;;;;5043132;28;20902;-46
2022/03/04 08:38:52;;;;;;;34.47;21.17;;;15.30;54.20;;;;;;5040939;28;21069;-46
2022/03/04 08:41:21;;;;;;;35.20;21.33;;;15.00;55.60;;;;;;5046474;28;20477;-47
2022/03/04 08:43:49;;;;;;;38.73;24.77;;;14.60;56.30;;;;;;5046319;28;20982;-46
2022/03/04 08:46:16;;;;;;;36.20;22.87;;;14.20;57.00;;;;;;5030343;28;20470;-46
2022/03/04 08:48:42;;;;;;;41.30;22.13;;;14.10;58.00;;;;;;5042877;28;20497;-45
2022/03/04 08:51:09;;;;;;;30.90;20.67;;;14.00;57.60;;;;;;5040177;28;20795;-45
2022/03/04 08:53:36;;;;;;;33.67;21.70;;;13.50;56.10;;;;;;5044768;28;20491;-45
2022/03/04 08:56:04;;;;;;;31.20;20.17;;;13.30;57.60;;;;;;5045925;28;20497;-45
2022/03/04 08:58:32;;;;;;;29.40;20.00;;;13.00;56.50;;;;;;5045061;28;20568;-45
2022/03/04 09:01:00;;;;;;;33.40;21.10;;;12.60;56.90;;;;;;5040647;28;20567;-46
2022/03/04 09:03:27;;;;;;;30.83;20.00;;;12.40;58.40;;;;;;5045133;28;20497;-45
2022/03/04 09:05:54;;;;;;;32.90;19.40;;;12.30;58.00;;;;;;5043955;28;20490;-46
2022/03/04 09:08:21;;;;;;;31.87;19.50;;;12.10;58.10;;;;;;5044542;28;20488;-45
2022/03/04 09:10:47;;;;;;;34.00;22.70;;;12.10;59.60;;;;;;5040810;28;20494;-45
2022/03/04 09:13:14;;;;;;;32.10;21.27;;;12.10;58.30;;;;;;5045089;28;20895;-45
2022/03/04 09:15:42;;;;;;;36.07;21.93;;;12.20;60.00;;;;;;5044572;28;20491;-45
2022/03/04 09:18:09;;;;;;;35.10;22.23;;;12.10;58.30;;;;;;5044696;28;20568;-45
2022/03/04 09:20:36;;;;;;;31.23;20.57;;;12.20;58.20;;;;;;5039447;28;20485;-45
2022/03/04 09:23:03;;;;;;;39.67;22.63;;;12.00;58.10;;;;;;5038020;28;20477;-45
2022/03/04 09:25:30;;;;;;;31.90;18.60;;;11.90;58.20;;;;;;5044387;28;20482;-45
2022/03/04 09:27:57;;;;;;;32.80;22.40;;;11.90;58.40;;;;;;5044707;28;20554;-46
2022/03/04 09:30:24;;;;;;;37.47;21.73;;;11.90;59.90;;;;;;5039462;28;21374;-46
2022/03/04 09:32:52;;;;;;;34.83;21.73;;;12.00;59.90;;;;;;5044321;28;20474;-49
2022/03/04 09:35:19;;;;;;;34.27;18.23;;;12.10;59.60;;;;;;5044338;28;21325;-45
2022/03/04 09:37:45;;;;;;;36.40;21.90;;;12.10;58.30;;;;;;5042731;28;20571;-45
2022/03/04 09:40:13;;;;;;;33.83;21.93;;;12.00;58.60;;;;;;5038560;28;20481;-45
2022/03/04 09:42:40;;;;;;;38.57;21.53;;;11.90;59.20;;;;;;5042102;28;20486;-45
2022/03/04 09:45:08;;;;;;;39.40;21.37;;;11.90;58.90;;;;;;5044820;28;20496;-45
2022/03/04 09:47:36;;;;;;;40.53;21.33;;;11.90;59.40;;;;;;5046345;28;20497;-45
2022/03/04 09:50:06;;;;;;;33.80;21.13;;;11.90;58.50;;;;;;5039093;28;20482;-46
2022/03/04 09:52:32;;;;;;;30.60;20.67;;;11.90;58.00;;;;;;5069544;28;20508;-45
2022/03/04 09:55:00;;;;;;;31.03;17.97;;;11.90;59.10;;;;;;5048868;28;20884;-45
2022/03/04 09:57:27;;;;;;;40.03;23.57;;;11.80;58.60;;;;;;5038648;28;20490;-46
2022/03/04 09:59:53;;;;;;;32.60;20.10;;;11.80;58.80;;;;;;5029473;28;20907;-45
2022/03/04 10:02:21;;;;;;;32.50;19.80;;;11.90;58.70;;;;;;5047880;28;20494;-46
2022/03/04 10:04:57;;;;;;;35.43;21.03;;;11.90;58.30;;;;;;5048934;28;20495;-45
2022/03/04 10:07:26;;;;;;;32.30;20.20;;;12.00;58.20;;;;;;5046385;28;20503;-45
2022/03/04 10:09:52;;;;;;;33.33;20.90;;;12.00;58.20;;;;;;5038700;28;20478;-45
2022/03/04 10:12:22;;;;;;;41.23;22.67;;;12.10;59.20;;;;;;5041425;28;20486;-45
2022/03/04 10:15:00;;;;;;;36.90;20.13;;;12.30;58.50;;;;;;5045080;28;20537;-45
2022/03/04 10:17:27;;;;;;;32.50;22.30;;;12.30;58.20;;;;;;5031678;28;20851;-45
2022/03/04 10:19:55;;;;;;;34.03;20.40;;;12.40;59.00;;;;;;5005280;28;20480;-46
2022/03/04 10:22:23;;;;;;;30.80;20.03;;;12.50;58.80;;;;;;5053390;28;20481;-46
2022/03/04 10:24:52;;;;;;;38.73;22.57;;;12.50;57.00;;;;;;5033288;28;20490;-46
2022/03/04 10:27:19;;;;;;;30.10;17.00;;;12.40;57.50;;;;;;5030579;28;20877;-46
2022/03/04 10:29:47;;;;;;;37.87;23.10;;;12.30;55.60;;;;;;5038127;28;20476;-46
2022/03/04 10:32:18;;;;;;;26.67;15.67;;;11.80;52.70;;;;;;5044686;28;20496;-46
2022/03/04 10:34:51;;;;;;;33.63;17.27;;;11.80;56.30;;;;;;5045500;28;20486;-46
2022/03/04 10:37:20;;;;;;;34.83;18.70;;;11.80;57.00;;;;;;5043667;28;20495;-46
2022/03/04 10:40:01;;;;;;;34.27;19.17;;;11.70;55.20;;;;;;5032793;28;20486;-45
2022/03/04 10:42:46;;;;;;;39.80;19.53;;;11.80;55.80;;;;;;5022551;28;20492;-46
2022/03/04 10:45:15;;;;;;;38.27;19.53;;;11.80;55.80;;;;;;5041301;28;20486;-45
2022/03/04 10:47:49;;;;;;;27.90;16.03;;;11.80;56.50;;;;;;5038987;28;20492;-46
2022/03/04 10:50:17;;;;;;;37.07;20.03;;;11.80;56.50;;;;;;5035488;28;20726;-46
2022/03/04 10:52:52;;;;;;;28.30;15.70;;;11.80;57.10;;;;;;5043732;28;20484;-46
2022/03/04 10:55:33;;;;;;;38.17;20.30;;;11.80;55.00;;;;;;5045200;28;20994;-46
2022/03/04 10:58:02;;;;;;;33.50;20.20;;;11.70;54.40;;;;;;5044078;28;20721;-46
2022/03/04 11:00:31;;;;;;;31.97;15.63;;;11.90;55.40;;;;;;5036045;28;20488;-45
2022/03/04 11:02:58;;;;;;;37.20;17.63;;;11.90;55.20;;;;;;5045419;28;20477;-45
2022/03/04 11:05:25;;;;;;;34.23;18.30;;;11.90;55.30;;;;;;5044019;28;20854;-45
2022/03/04 11:07:52;;;;;;;30.77;18.10;;;12.00;55.50;;;;;;5042657;28;20961;-45
2022/03/04 11:10:20;;;;;;;34.80;18.00;;;12.00;55.80;;;;;;5036900;28;20509;-45
2022/03/04 11:12:52;;;;;;;39.00;19.40;;;12.10;57.70;;;;;;5043603;28;21075;-45
2022/03/04 11:15:21;;;;;;;31.60;16.90;;;12.10;56.30;;;;;;5043516;28;20484;-45
2022/03/04 11:17:48;;;;;;;41.90;20.97;;;12.10;54.50;;;;;;5044422;28;21587;-45
2022/03/04 11:20:16;;;;;;;33.27;16.73;;;12.10;54.30;;;;;;5037957;28;20476;-45
2022/03/04 11:22:45;;;;;;;27.27;15.07;;;12.10;54.20;;;;;;5040272;28;20521;-45
2022/03/04 11:25:15;;;;;;;28.80;16.13;;;12.10;51.70;;;;;;5041433;28;20479;-46
2022/03/04 11:27:43;;;;;;;33.37;16.07;;;12.10;51.70;;;;;;5038865;28;20489;-45
2022/03/04 11:30:38;;;;;;;30.50;16.33;;;12.00;52.10;;;;;;5038385;28;20876;-46
2022/03/04 11:33:14;;;;;;;21.23;11.60;;;12.10;52.30;;;;;;5042805;28;20470;-45
2022/03/04 11:36:04;;;;;;;35.17;15.00;;;12.20;51.90;;;;;;5045540;28;20480;-46
2022/03/04 11:39:08;;;;;;;29.60;15.53;;;12.20;50.50;;;;;;5044594;28;20881;-45
2022/03/04 11:42:06;;;;;;;31.27;14.17;;;12.20;50.10;;;;;;5045625;28;20527;-45
2022/03/04 11:44:33;;;;;;;27.90;15.33;;;;;;;;;;5045475;28;20889;-45
2022/03/04 11:47:04;;;;;;;27.73;16.17;;;12.30;50.10;;;;;;5045066;28;20484;-46
2022/03/04 11:49:34;;;;;;;31.83;17.10;;;12.50;52.50;;;;;;5038523;28;20485;-45
2022/03/04 11:52:25;;;;;;;26.77;15.57;;;12.50;49.10;;;;;;5060005;28;20560;-46
2022/03/04 11:55:26;;;;;;;28.13;14.33;;;12.30;50.30;;;;;;5043077;28;20940;-45
2022/03/04 11:58:13;;;;;;;27.17;14.13;;;12.40;50.00;;;;;;5045985;28;20482;-45
2022/03/04 12:00:40;;;;;;;12.87;7.40;;;12.30;48.30;;;;;;5020279;28;20844;-45
2022/03/04 12:03:18;;;;;;;20.77;10.90;;;12.10;47.00;;;;;;5047116;28;20478;-46
2022/03/04 12:05:48;;;;;;;37.07;16.80;;;12.20;48.40;;;;;;5035873;28;20518;-45
2022/03/04 12:08:14;;;;;;;24.20;14.03;;;12.30;49.60;;;;;;5064483;28;20479;-45
2022/03/04 12:10:53;;;;;;;26.47;14.10;;;12.10;50.00;;;;;;5037111;28;20480;-46
2022/03/04 12:13:23;;;;;;;27.87;17.27;;;12.30;50.10;;;;;;5044462;28;20702;-46
2022/03/04 12:15:53;;;;;;;32.67;17.90;;;12.40;48.90;;;;;;5044049;28;20888;-45
2022/03/04 12:18:28;;;;;;;27.07;15.13;;;12.90;51.60;;;;;;5045262;28;20494;-45
2022/03/04 12:21:03;;;;;;;21.87;12.10;;;12.90;51.90;;;;;;5036929;28;20484;-45
2022/03/04 12:23:36;;;;;;;25.37;13.87;;;12.60;48.20;;;;;;5044939;28;20971;-45
2022/03/04 12:26:20;;;;;;;30.43;16.10;;;12.70;50.30;;;;;;5058862;28;20523;-45
2022/03/04 12:28:48;;;;;;;19.50;11.43;;;12.50;47.70;;;;;;5036122;28;20487;-46
2022/03/04 12:31:21;;;;;;;19.17;11.80;;;12.50;49.00;;;;;;5038810;28;20480;-45
2022/03/04 12:33:54;;;;;;;18.23;11.90;;;12.00;46.30;;;;;;5044214;28;20877;-47
2022/03/04 12:36:22;;;;;;;21.07;12.90;;;12.00;45.80;;;;;;5042257;28;20551;-46